Clovis ASC

2021-04-18 22:05:00

  • imperial
Date Time Air Temperature Relative Humidity Dewpoint Windchill Heat Index Wind Speed Wind Dir. Rain Solar Radiation Soil Temperature Soil Temperature
2m 2m 3m 3m 5cm 10cm
US/Mountain F % F F F MPH deg in MJ/m^2 F F
max avg avg
2021-04-17 22:15:00 42.1 48.9 24.3 36.5 42.1 9.4 9.4 7.4 41.1 50.5 0.00 0.0000000 53.0 56.6
2021-04-17 22:20:00 42.1 49.0 24.4 36.6 42.1 9.2 10.1 8.4 51.3 52.4 0.00 0.0000000 52.9 56.5
2021-04-17 22:25:00 42.1 49.2 24.4 38.0 42.1 6.5 9.4 6.8 50.5 47.3 0.00 0.0000000 52.8 56.4
2021-04-17 22:30:00 42.0 49.4 24.4 39.5 42.0 4.2 8.0 5.1 47.9 44.5 0.00 0.0000000 52.7 56.4
2021-04-17 22:35:00 41.9 49.6 24.4 39.2 41.9 4.4 6.3 4.4 39.7 33.2 0.00 0.0000000 52.6 56.3
2021-04-17 22:40:00 41.8 49.7 24.4 38.2 41.8 5.6 5.6 4.2 24.1 30.8 0.00 0.0000000 52.5 56.2
2021-04-17 22:45:00 41.7 49.7 24.3 41.7 41.7 2.6 6.0 3.8 40.2 34.0 0.00 0.0000000 52.4 56.1
2021-04-17 22:50:00 41.7 50.0 24.4 39.2 41.7 4.0 4.9 3.7 37.5 36.2 0.00 0.0000000 52.3 56.0
2021-04-17 22:55:00 41.6 50.1 24.4 39.3 41.6 3.8 4.6 3.7 7.6 24.0 0.00 0.0000000 52.2 56.0
2021-04-17 23:00:00 41.5 50.3 24.4 41.5 41.5 3.0 4.9 3.9 17.0 22.5 0.00 0.0000000 52.1 55.9
2021-04-17 23:05:00 41.4 50.6 24.5 38.9 41.4 4.0 5.5 4.0 48.3 29.5 0.00 0.0000000 52.1 55.8
2021-04-17 23:10:00 41.4 50.5 24.4 37.9 41.4 5.3 6.5 4.8 39.2 33.8 0.00 0.0000000 52.0 55.7
2021-04-17 23:15:00 41.3 50.6 24.3 39.1 41.3 3.7 6.2 4.4 32.3 28.7 0.00 0.0000000 51.9 55.7
2021-04-17 23:20:00 41.2 50.8 24.3 41.2 41.2 2.6 6.2 4.2 18.8 29.9 0.00 0.0000000 51.8 55.6
2021-04-17 23:25:00 40.9 51.1 24.2 37.5 40.9 5.1 5.5 4.4 24.6 20.3 0.00 0.0000000 51.7 55.5
2021-04-17 23:30:00 40.7 51.6 24.3 39.0 40.7 3.1 6.3 4.3 23.1 22.4 0.00 0.0000000 51.6 55.5
2021-04-17 23:35:00 40.5 52.0 24.2 37.7 40.5 4.2 5.1 4.1 23.8 23.3 0.00 0.0000000 51.5 55.4
2021-04-17 23:40:00 40.4 52.2 24.2 38.6 40.4 3.1 5.5 4.1 59.1 25.8 0.00 0.0000000 51.5 55.3
2021-04-17 23:45:00 40.3 52.6 24.3 38.1 40.3 3.5 5.6 4.3 4.8 25.2 0.00 0.0000000 51.4 55.2
2021-04-17 23:50:00 40.3 52.7 24.3 37.1 40.3 4.6 5.3 3.9 19.7 24.2 0.00 0.0000000 51.3 55.2
2021-04-17 23:55:00 40.1 52.9 24.3 36.0 40.1 5.8 6.0 4.6 339.3 28.0 0.00 0.0000000 51.2 55.1
2021-04-18 00:00:00 40.0 53.1 24.3 37.1 40.0 4.2 6.5 5.0 7.6 26.9 0.00 0.0000000 51.1 55.0
2021-04-18 00:05:00 40.0 53.4 24.4 36.9 40.0 4.4 6.0 4.6 24.8 31.6 0.00 0.0000000 51.0 55.0
2021-04-18 00:10:00 39.8 53.7 24.4 37.1 39.8 4.0 6.2 4.3 36.4 26.5 0.00 0.0000000 50.9 54.9
2021-04-18 00:15:00 39.7 53.9 24.4 37.1 39.7 3.8 6.0 4.2 47.0 34.4 0.00 0.0000000 50.8 54.8
2021-04-18 00:20:00 39.7 54.2 24.5 36.4 39.7 4.6 6.3 4.1 12.5 26.4 0.00 0.0000000 50.7 54.8
2021-04-18 00:25:00 39.6 54.2 24.4 39.6 39.6 2.6 4.7 4.0 22.4 33.1 0.00 0.0000000 50.6 54.7
2021-04-18 00:30:00 39.3 54.6 24.4 37.3 39.3 3.3 4.7 3.3 45.5 31.5 0.00 0.0000000 50.5 54.6
2021-04-18 00:35:00 39.1 54.9 24.3 36.2 39.1 4.0 4.7 3.7 17.7 22.5 0.00 0.0000000 50.5 54.6
2021-04-18 00:40:00 38.9 55.2 24.2 38.9 38.9 2.6 4.2 3.2 42.6 36.0 0.00 0.0000000 50.4 54.5
2021-04-18 00:45:00 38.8 55.5 24.2 38.8 38.8 2.6 4.7 2.5 34.8 40.3 0.00 0.0000000 50.3 54.4
2021-04-18 00:50:00 38.5 55.9 24.1 38.5 38.5 2.2 2.8 2.2 25.2 31.4 0.00 0.0000000 50.1 54.4
2021-04-18 00:55:00 38.1 56.8 24.2 36.1 38.1 3.1 3.1 2.5 21.6 28.4 0.00 0.0000000 50.0 54.3
2021-04-18 01:00:00 37.9 57.2 24.2 37.9 37.9 2.2 3.5 2.9 31.2 26.4 0.00 0.0000000 49.9 54.2
2021-04-18 01:05:00 37.8 57.8 24.2 37.8 37.8 2.4 3.0 2.4 28.9 26.0 0.00 0.0000000 49.7 54.1
2021-04-18 01:10:00 37.6 58.4 24.3 37.6 37.6 1.7 2.8 1.9 28.6 14.3 0.00 0.0000000 49.6 54.1
2021-04-18 01:15:00 37.4 58.9 24.3 37.4 37.4 1.0 1.5 1.2 37.7 34.5 0.00 0.0000000 49.4 54.0
2021-04-18 01:20:00 37.0 59.0 24.0 37.0 37.0 1.2 1.9 1.1 16.4 31.2 0.00 0.0000000 49.2 53.9
2021-04-18 01:25:00 36.9 59.2 23.9 36.9 36.9 1.5 1.7 1.2 13.4 17.6 0.00 0.0000000 49.1 53.8
2021-04-18 01:30:00 36.5 59.2 23.6 36.5 36.5 1.9 2.4 1.7 0.4 3.6 0.00 0.0000000 48.9 53.7
2021-04-18 01:35:00 35.8 60.9 23.6 35.8 35.8 2.6 2.6 2.3 344.7 353.4 0.00 0.0000000 48.7 53.6
2021-04-18 01:40:00 34.6 60.2 22.2 31.2 34.6 3.8 4.0 3.5 331.2 334.9 0.00 0.0000000 48.6 53.5
2021-04-18 01:45:00 33.5 62.2 21.9 30.4 33.5 3.5 4.0 3.8 335.2 330.0 0.00 0.0000000 48.4 53.4
2021-04-18 01:50:00 32.4 64.0 21.6 29.1 32.4 3.5 3.7 3.6 324.6 327.5 0.00 0.0000000 48.2 53.3
2021-04-18 01:55:00 31.4 67.4 21.8 28.0 31.4 3.5 3.7 3.5 315.6 320.5 0.00 0.0000000 48.1 53.2
2021-04-18 02:00:00 31.2 70.3 22.6 27.5 31.2 3.7 3.8 3.5 314.0 311.6 0.00 0.0000000 47.9 53.2
2021-04-18 02:05:00 30.7 70.9 22.4 26.7 30.7 3.8 4.6 4.1 325.5 317.7 0.00 0.0000000 47.7 53.1
2021-04-18 02:10:00 31.4 70.3 22.9 28.0 31.4 3.5 4.0 3.6 339.0 338.7 0.00 0.0000000 47.6 53.0
2021-04-18 02:15:00 32.6 68.1 23.3 29.8 32.6 3.1 3.8 3.3 342.0 342.4 0.00 0.0000000 47.4 52.8
2021-04-18 02:20:00 33.2 66.8 23.3 33.2 33.2 3.0 3.7 3.1 338.9 343.9 0.00 0.0000000 47.2 52.8
2021-04-18 02:25:00 33.5 67.1 23.7 33.5 33.5 2.8 3.3 3.0 343.8 341.5 0.00 0.0000000 47.1 52.7
2021-04-18 02:30:00 33.7 65.9 23.5 33.7 33.7 3.0 3.1 2.8 339.7 343.1 0.00 0.0000000 46.9 52.6
2021-04-18 02:35:00 33.6 65.8 23.4 30.9 33.6 3.1 3.8 3.4 343.0 334.2 0.00 0.0000000 46.8 52.4
2021-04-18 02:40:00 33.6 64.7 23.0 30.9 33.6 3.1 3.5 3.2 334.8 331.8 0.00 0.0000000 46.7 52.3
2021-04-18 02:45:00 33.2 66.2 23.2 30.5 33.2 3.1 3.3 2.9 310.4 324.5 0.00 0.0000000 46.5 52.2
2021-04-18 02:50:00 30.3 68.6 21.2 26.3 30.3 3.8 4.0 3.5 305.4 300.3 0.00 0.0000000 46.4 52.2
2021-04-18 02:55:00 30.1 71.9 22.2 26.3 30.1 3.7 4.2 3.8 299.9 295.1 0.00 0.0000000 46.3 52.1
2021-04-18 03:00:00 30.8 73.4 23.3 27.5 30.8 3.3 3.7 3.4 310.3 305.2 0.00 0.0000000 46.2 52.0
2021-04-18 03:05:00 31.4 70.0 22.7 27.3 31.4 4.0 4.0 3.6 309.4 305.2 0.00 0.0000000 46.1 51.9
2021-04-18 03:10:00 31.0 74.7 23.9 25.9 31.0 4.9 5.1 4.6 315.3 314.7 0.00 0.0000000 46.0 51.8
2021-04-18 03:15:00 30.4 73.7 23.1 26.6 30.4 3.7 5.1 4.3 312.2 315.3 0.00 0.0000000 45.8 51.7
2021-04-18 03:20:00 30.6 74.2 23.3 27.0 30.6 3.5 3.8 3.5 299.3 311.6 0.00 0.0000000 45.8 51.6
2021-04-18 03:25:00 30.7 73.1 23.1 25.8 30.7 4.7 4.7 4.2 293.9 293.9 0.00 0.0000000 45.7 51.5
2021-04-18 03:30:00 30.7 73.4 23.2 26.5 30.7 4.0 4.6 4.0 298.3 297.2 0.00 0.0000000 45.6 51.4
2021-04-18 03:35:00 30.9 70.1 22.3 26.3 30.9 4.4 4.6 4.3 303.6 303.3 0.00 0.0000000 45.5 51.4
2021-04-18 03:40:00 30.2 70.4 21.7 26.3 30.2 3.7 4.6 4.2 320.7 306.8 0.00 0.0000000 45.4 51.3
2021-04-18 03:45:00 30.1 71.1 21.9 25.9 30.1 4.0 4.4 4.1 319.8 315.3 0.00 0.0000000 45.3 51.2
2021-04-18 03:50:00 29.9 73.4 22.5 25.6 29.9 4.0 4.6 4.0 319.4 315.9 0.00 0.0000000 45.2 51.1
2021-04-18 03:55:00 29.7 78.1 23.7 25.0 29.7 4.4 4.7 4.4 325.2 320.3 0.00 0.0000000 45.1 51.0
2021-04-18 04:00:00 30.0 75.1 23.1 25.7 30.0 4.0 4.6 4.2 319.7 324.6 0.00 0.0000000 45.0 50.9
2021-04-18 04:05:00 29.5 76.7 23.1 25.4 29.5 3.8 4.0 3.9 303.5 312.4 0.00 0.0000000 44.9 50.9
2021-04-18 04:10:00 29.3 75.5 22.5 24.1 29.3 4.7 4.7 4.1 298.4 303.1 0.00 0.0000000 44.8 50.8
2021-04-18 04:15:00 27.7 74.4 20.7 23.1 27.7 4.0 4.7 4.3 300.3 300.7 0.00 0.0000000 44.7 50.7
2021-04-18 04:20:00 27.0 76.2 20.5 22.3 27.0 4.0 4.4 3.8 299.3 299.4 0.00 0.0000000 44.6 50.6
2021-04-18 04:25:00 27.0 76.2 20.5 21.8 27.0 4.4 4.4 4.2 318.3 310.5 0.00 0.0000000 44.4 50.5
2021-04-18 04:30:00 27.4 76.2 20.9 23.1 27.4 3.7 4.6 4.1 319.9 316.4 0.00 0.0000000 44.3 50.5
2021-04-18 04:35:00 28.0 78.1 22.0 23.4 28.0 4.0 4.2 3.6 306.4 319.4 0.00 0.0000000 44.2 50.4
2021-04-18 04:40:00 28.0 77.0 21.7 23.2 28.0 4.2 4.4 4.1 318.1 316.7 0.00 0.0000000 44.1 50.3
2021-04-18 04:45:00 28.5 76.7 22.1 23.8 28.5 4.2 4.7 4.4 324.1 324.0 0.00 0.0000000 44.0 50.2
2021-04-18 04:50:00 28.2 76.5 21.8 24.1 28.2 3.7 4.0 3.7 302.7 317.0 0.00 0.0000000 43.9 50.1
2021-04-18 04:55:00 27.3 78.1 21.3 21.8 27.3 4.7 4.9 4.1 304.4 294.8 0.00 0.0000000 43.7 50.0
2021-04-18 05:00:00 27.5 77.3 21.3 21.8 27.5 4.9 5.1 4.8 305.3 299.6 0.00 0.0000000 43.6 49.9
2021-04-18 05:05:00 27.9 76.4 21.5 22.4 27.9 4.9 5.5 5.0 293.4 299.2 0.00 0.0000000 43.5 49.9
2021-04-18 05:10:00 28.1 76.3 21.6 23.8 28.1 3.8 5.3 4.6 292.4 290.6 0.00 0.0000000 43.4 49.8
2021-04-18 05:15:00 27.6 76.3 21.1 22.4 27.6 4.6 4.6 3.9 299.1 296.6 0.00 0.0000000 43.4 49.7
2021-04-18 05:20:00 27.5 75.9 20.9 22.2 27.5 4.6 4.9 4.4 331.9 314.1 0.00 0.0000000 43.3 49.6
2021-04-18 05:25:00 27.8 77.3 21.6 22.8 27.8 4.4 5.1 4.6 328.7 325.5 0.00 0.0000000 43.2 49.6
2021-04-18 05:30:00 28.4 79.2 22.7 23.2 28.4 4.6 4.7 4.4 322.4 329.2 0.00 0.0000000 43.1 49.5
2021-04-18 05:35:00 28.6 78.8 22.9 23.9 28.6 4.2 4.7 4.4 327.1 328.0 0.00 0.0000000 43.0 49.4
2021-04-18 05:40:00 28.8 77.8 22.7 23.4 28.8 4.9 5.3 4.7 334.0 331.0 0.00 0.0000000 42.9 49.3
2021-04-18 05:45:00 28.7 77.6 22.6 23.1 28.7 5.1 5.3 5.0 335.6 333.9 0.00 0.0000000 42.8 49.2
2021-04-18 05:50:00 29.5 72.9 21.8 23.7 29.5 5.5 5.5 5.1 345.0 337.2 0.00 0.0000000 42.7 49.1
2021-04-18 05:55:00 29.5 72.8 21.8 23.8 29.5 5.3 5.8 5.0 350.7 346.4 0.00 0.0000000 42.6 49.1
2021-04-18 06:00:00 29.2 74.1 22.0 24.6 29.2 4.2 5.8 4.9 349.3 347.9 0.00 0.0000000 42.5 49.0
2021-04-18 06:05:00 29.7 73.3 22.2 24.4 29.7 4.9 5.3 4.6 347.6 349.1 0.00 0.0000000 42.5 48.9
2021-04-18 06:10:00 29.2 73.8 21.9 24.2 29.2 4.6 5.6 4.9 342.1 345.6 0.00 0.0000000 42.4 48.8
2021-04-18 06:15:00 28.5 73.3 21.1 22.2 28.5 5.8 5.8 5.3 346.8 341.9 0.00 0.0001086 42.3 48.8
2021-04-18 06:20:00 27.8 75.7 21.1 21.4 27.8 5.8 6.5 5.6 349.9 343.2 0.00 0.0014147 42.2 48.7
2021-04-18 06:25:00 27.6 76.2 21.1 22.2 27.6 4.7 6.0 5.2 338.8 343.5 0.00 0.0062722 42.2 48.6
2021-04-18 06:30:00 27.7 75.7 21.0 22.4 27.7 4.6 5.5 5.0 332.0 341.0 0.00 0.0100735 42.1 48.6
2021-04-18 06:35:00 27.6 77.1 21.4 22.4 27.6 4.6 5.5 4.8 336.5 341.4 0.00 0.0142388 42.0 48.5
2021-04-18 06:40:00 28.3 77.2 22.0 22.2 28.3 5.5 5.5 4.6 346.1 346.0 0.00 0.0191080 42.0 48.4
2021-04-18 06:45:00 28.9 76.6 22.5 24.1 28.9 4.4 5.3 4.6 331.9 339.7 0.00 0.0238942 41.9 48.4
2021-04-18 06:50:00 29.3 78.6 23.5 25.8 29.3 3.3 4.2 3.7 338.4 326.9 0.00 0.0285892 41.9 48.3
2021-04-18 06:55:00 30.6 77.2 24.3 26.8 30.6 3.7 3.8 3.5 329.9 332.5 0.00 0.0333437 41.8 48.2
2021-04-18 07:00:00 31.5 76.2 24.9 28.1 31.5 3.5 3.8 3.5 332.9 332.5 0.00 0.0378120 41.8 48.2
2021-04-18 07:05:00 33.1 73.7 25.6 29.3 33.1 4.0 4.6 3.8 312.1 325.9 0.00 0.0426475 41.8 48.1
2021-04-18 07:10:00 34.7 70.3 26.0 30.5 34.7 4.7 5.6 4.2 296.9 308.5 0.00 0.0478066 41.9 48.1
2021-04-18 07:15:00 35.8 67.8 26.2 30.7 35.8 6.0 6.0 4.9 301.0 304.3 0.00 0.0531164 41.9 48.0
2021-04-18 07:20:00 36.5 66.2 26.3 31.8 36.5 5.6 6.3 5.3 313.2 306.4 0.00 0.0588255 42.0 48.0
2021-04-18 07:25:00 37.3 64.3 26.4 32.7 37.3 5.8 6.0 5.2 315.0 316.0 0.00 0.0655431 42.1 47.9
2021-04-18 07:30:00 38.4 63.8 27.2 35.7 38.4 3.8 6.2 4.5 319.5 312.6 0.00 0.0724106 42.2 47.9
2021-04-18 07:35:00 39.3 61.3 27.1 36.6 39.3 3.8 4.9 4.2 314.6 318.6 0.00 0.0756543 42.4 47.9
2021-04-18 07:40:00 40.0 58.0 26.5 37.5 40.0 3.8 4.9 4.2 288.9 302.4 0.00 0.0799759 42.6 47.9
2021-04-18 07:45:00 40.9 55.4 26.2 38.5 40.9 3.8 5.1 4.0 321.1 309.2 0.00 0.0793945 42.8 47.9
2021-04-18 07:50:00 41.2 54.8 26.2 41.2 41.2 3.0 5.3 4.2 331.0 314.5 0.00 0.0682585 43.1 47.9
2021-04-18 07:55:00 41.4 51.6 24.9 38.6 41.4 4.4 4.9 4.1 297.9 308.7 0.00 0.0641971 43.3 48.0
2021-04-18 08:00:00 41.7 52.0 25.4 38.4 41.7 5.1 5.6 4.7 312.9 314.0 0.00 0.0838967 43.6 48.0
2021-04-18 08:05:00 42.5 49.9 25.1 39.0 42.5 5.6 5.8 4.3 305.6 305.4 0.00 0.0912089 43.9 48.1
2021-04-18 08:10:00 42.7 50.3 25.4 41.0 42.7 3.3 5.5 4.3 279.8 278.9 0.00 0.1089174 44.2 48.1
2021-04-18 08:15:00 43.1 47.7 24.6 39.5 43.1 6.0 6.3 4.4 306.9 286.2 0.00 0.1138436 44.5 48.2
2021-04-18 08:20:00 43.6 48.9 25.6 41.7 43.6 3.7 5.6 4.2 303.8 291.1 0.00 0.1188570 44.8 48.3
2021-04-18 08:25:00 43.7 48.6 25.6 42.4 43.7 3.1 7.1 4.8 266.6 269.1 0.00 0.1237476 45.2 48.4
2021-04-18 08:30:00 44.0 47.4 25.3 41.8 44.0 4.2 5.6 4.1 284.0 272.0 0.00 0.1289469 45.6 48.5
2021-04-18 08:35:00 44.3 46.0 24.8 40.2 44.3 7.1 8.0 5.1 282.4 297.2 0.00 0.1347070 46.0 48.6
2021-04-18 08:40:00 44.4 45.2 24.5 42.8 44.4 3.5 7.2 5.1 332.7 309.4 0.00 0.1406247 46.4 48.7
2021-04-18 08:45:00 45.1 44.7 24.9 42.1 45.1 5.6 6.9 4.5 238.8 302.3 0.00 0.1466244 46.9 48.8
2021-04-18 08:50:00 44.9 44.1 24.4 40.9 44.9 7.2 8.0 5.1 273.6 290.0 0.00 0.1428944 47.4 49.0
2021-04-18 08:55:00 44.9 43.8 24.2 42.3 44.9 4.9 7.1 5.1 274.3 281.7 0.00 0.1547505 47.8 49.1
2021-04-18 09:00:00 45.3 43.7 24.5 42.3 45.3 5.6 6.9 5.5 340.2 291.6 0.00 0.1614999 48.3 49.3
2021-04-18 09:05:00 45.9 41.3 23.6 41.8 45.9 7.8 9.0 4.6 297.7 332.0 0.00 0.1667289 48.8 49.4
2021-04-18 09:10:00 45.3 42.7 24.0 45.3 45.3 3.0 7.2 5.1 276.9 284.4 0.00 0.1716586 49.3 49.6
2021-04-18 09:15:00 45.9 40.7 23.3 42.2 45.9 7.1 9.6 6.1 317.8 286.7 0.00 0.1771942 49.9 49.8
2021-04-18 09:20:00 46.4 37.8 22.0 44.7 46.4 4.0 7.8 5.0 326.7 280.0 0.00 0.1821885 50.4 50.0
2021-04-18 09:25:00 47.4 36.0 21.7 45.0 47.4 5.3 9.7 5.0 336.1 318.7 0.00 0.1872056 50.9 50.2
2021-04-18 09:30:00 47.0 37.3 22.3 45.8 47.0 3.5 6.0 3.9 321.9 290.9 0.00 0.1918592 51.4 50.4
2021-04-18 09:35:00 47.8 36.9 22.6 45.8 47.8 4.6 8.8 3.4 322.9 310.3 0.00 0.1971378 52.0 50.6
2021-04-18 09:40:00 47.4 36.1 21.9 42.6 47.4 10.8 10.8 6.9 330.7 306.9 0.00 0.2024608 52.5 50.9
2021-04-18 09:45:00 48.0 34.2 21.1 45.2 48.0 6.2 10.1 5.7 0.5 343.1 0.00 0.2082366 53.1 51.1
2021-04-18 09:50:00 48.3 33.5 20.9 46.3 48.3 4.9 7.4 4.9 25.8 25.8 0.00 0.2135955 53.7 51.4
2021-04-18 09:55:00 48.7 31.0 19.4 46.0 48.7 6.3 11.9 6.9 314.6 338.6 0.00 0.2185506 54.2 51.6
2021-04-18 10:00:00 48.3 32.1 19.8 48.3 48.3 1.7 11.7 5.4 278.9 324.6 0.00 0.2214145 54.8 51.9
2021-04-18 10:05:00 48.7 30.6 19.1 45.8 48.7 6.7 9.2 6.2 23.9 15.7 0.00 0.2168646 55.4 52.1
2021-04-18 10:10:00 49.4 29.6 18.9 45.6 49.4 9.2 9.2 5.2 2.9 342.1 0.00 0.2210319 56.0 52.4
2021-04-18 10:15:00 49.4 29.9 19.1 45.9 49.4 8.1 11.2 8.2 346.9 343.7 0.00 0.2312739 56.5 52.6
2021-04-18 10:20:00 48.8 31.1 19.6 46.5 48.8 5.6 11.2 7.6 292.1 317.1 0.00 0.2310400 57.1 52.9
2021-04-18 10:25:00 49.3 30.2 19.3 46.6 49.3 6.3 11.5 7.1 319.8 319.1 0.00 0.2451252 57.6 53.2
2021-04-18 10:30:00 49.9 29.6 19.4 47.3 49.9 6.5 8.8 5.6 348.1 359.9 0.00 0.2484533 58.1 53.5
2021-04-18 10:35:00 50.5 31.0 20.9 50.5 50.5 3.3 8.3 5.4 41.5 3.1 0.00 0.2506299 58.6 53.8
2021-04-18 10:40:00 50.9 31.0 21.3 50.9 50.9 5.6 10.8 5.1 283.9 325.1 0.00 0.2533453 59.0 54.1
2021-04-18 10:45:00 50.3 31.6 21.2 50.3 50.3 5.3 9.2 6.3 345.2 334.5 0.00 0.2281609 59.3 54.3
2021-04-18 10:50:00 50.8 32.0 22.0 50.8 50.8 9.9 14.6 8.7 333.0 306.4 0.00 0.2610627 59.6 54.6
2021-04-18 10:55:00 50.0 30.8 20.4 50.0 50.0 4.4 12.2 7.7 291.8 317.3 0.00 0.2647976 59.9 54.9
2021-04-18 11:00:00 50.4 30.7 20.6 50.4 50.4 1.3 5.6 3.1 164.4 174.5 0.00 0.2675356 60.3 55.2
2021-04-18 11:05:00 51.7 30.6 21.7 51.7 51.7 3.8 7.4 4.5 233.0 237.5 0.00 0.2723880 60.6 55.5
2021-04-18 11:10:00 51.2 30.3 21.0 51.2 51.2 9.2 14.2 9.5 327.4 299.3 0.00 0.2815163 60.8 55.9
2021-04-18 11:15:00 50.7 29.6 20.0 50.7 50.7 3.7 14.7 8.6 301.4 312.3 0.00 0.2666946 61.0 56.1
2021-04-18 11:20:00 50.3 30.1 20.1 50.3 50.3 6.2 8.1 4.7 245.2 248.6 0.00 0.2195533 61.0 56.5
2021-04-18 11:25:00 51.5 29.9 20.9 51.5 51.5 6.9 12.2 6.4 342.4 309.7 0.00 0.2840657 60.8 56.8
2021-04-18 11:30:00 50.9 27.8 18.8 50.9 50.9 3.5 9.7 5.4 162.5 6.7 0.00 0.2859650 60.7 57.1
2021-04-18 11:35:00 52.9 27.4 20.1 52.9 52.9 3.8 5.8 3.1 70.2 16.5 0.00 0.3000095 60.6 57.4
2021-04-18 11:40:00 52.3 29.4 21.3 52.3 52.3 8.8 15.5 7.3 297.4 324.3 0.00 0.2218627 60.6 57.7
2021-04-18 11:45:00 52.1 28.1 20.0 52.1 52.1 5.5 11.5 8.3 307.1 326.5 0.00 0.2918238 60.8 58.0
2021-04-18 11:50:00 52.6 29.0 21.2 52.6 52.6 5.8 12.1 6.0 285.2 354.9 0.00 0.2909360 61.1 58.3
2021-04-18 11:55:00 52.3 28.6 20.7 52.3 52.3 4.0 8.1 5.9 210.6 258.6 0.00 0.2923800 61.5 58.6
2021-04-18 12:00:00 52.3 29.4 21.3 52.3 52.3 4.0 6.9 4.6 209.4 210.0 0.00 0.2931761 62.0 58.9
2021-04-18 12:05:00 53.0 27.7 20.4 53.0 53.0 11.5 11.5 5.7 345.7 225.1 0.00 0.2941547 62.5 59.2
2021-04-18 12:10:00 53.3 27.1 20.2 53.3 53.3 8.1 10.6 7.5 309.1 323.8 0.00 0.2987361 63.2 59.5
2021-04-18 12:15:00 53.7 26.2 19.9 53.7 53.7 11.5 11.5 9.3 315.8 340.9 0.00 0.3013293 63.9 59.8
2021-04-18 12:20:00 53.3 24.3 17.7 53.3 53.3 7.8 10.8 7.2 32.8 352.9 0.00 0.2992222 64.6 60.1
2021-04-18 12:25:00 53.8 25.5 19.2 53.8 53.8 7.1 8.0 4.0 40.5 348.0 0.00 0.2992519 65.3 60.4
2021-04-18 12:30:00 53.9 26.4 20.1 53.9 53.9 9.4 11.9 8.3 340.0 338.9 0.00 0.2854178 65.9 60.7
2021-04-18 12:35:00 54.0 26.2 20.1 54.0 54.0 9.2 9.2 4.5 313.1 348.2 0.00 0.3052103 66.5 60.9
2021-04-18 12:40:00 54.1 25.5 19.5 54.1 54.1 2.4 12.8 8.6 293.6 308.2 0.00 0.3051953 67.1 61.2
2021-04-18 12:45:00 54.2 24.8 18.9 54.2 54.2 4.4 12.6 5.7 0.4 307.9 0.00 0.3036341 67.7 61.4
2021-04-18 12:50:00 54.0 24.4 18.4 54.0 54.0 3.1 12.8 8.0 35.0 332.4 0.00 0.3017112 68.3 61.7
2021-04-18 12:55:00 54.8 24.2 18.9 54.8 54.8 4.7 7.8 5.5 189.4 258.7 0.00 0.3013794 69.0 61.9
2021-04-18 13:00:00 54.8 24.3 19.0 54.8 54.8 3.1 8.0 4.9 345.7 235.0 0.00 0.3006669 69.5 62.1
2021-04-18 13:05:00 56.2 22.7 18.6 56.2 56.2 4.4 12.2 7.7 318.0 340.4 0.00 0.3000647 70.1 62.4
2021-04-18 13:10:00 55.9 24.0 19.6 55.9 55.9 9.7 13.7 7.8 306.3 352.2 0.00 0.2997473 70.7 62.6
2021-04-18 13:15:00 55.3 23.2 18.2 55.3 55.3 3.8 11.7 7.1 263.0 284.6 0.00 0.2992057 71.2 62.8
2021-04-18 13:20:00 55.0 21.9 16.7 55.0 55.0 4.9 8.5 5.4 62.5 60.1 0.00 0.2989163 71.7 63.0
2021-04-18 13:25:00 54.9 24.7 19.4 54.9 54.9 5.6 9.6 5.9 221.8 227.3 0.00 0.2977600 72.2 63.3
2021-04-18 13:30:00 55.1 24.4 19.4 55.1 55.1 6.9 8.5 5.9 236.6 221.1 0.00 0.2960204 72.7 63.5
2021-04-18 13:35:00 56.5 22.6 18.7 56.5 56.5 4.4 7.4 3.3 13.9 28.3 0.00 0.2947379 73.1 63.8
2021-04-18 13:40:00 56.7 22.8 19.1 56.7 56.7 10.6 12.6 8.4 305.4 311.3 0.00 0.2947254 73.6 64.1
2021-04-18 13:45:00 56.4 22.6 18.6 56.4 56.4 9.4 14.4 9.7 0.1 326.8 0.00 0.2924495 74.0 64.3
2021-04-18 13:50:00 56.3 25.7 21.6 56.3 56.3 10.6 11.3 8.1 223.9 314.7 0.00 0.2909757 74.5 64.5
2021-04-18 13:55:00 57.2 22.8 19.5 57.2 57.2 8.3 13.5 9.8 350.0 271.9 0.00 0.2901224 74.9 64.8
2021-04-18 14:00:00 57.3 21.5 18.2 57.3 57.3 4.2 7.6 5.0 276.3 327.1 0.00 0.2882547 75.2 65.1
2021-04-18 14:05:00 57.5 21.1 18.0 57.5 57.5 6.9 10.5 5.4 28.2 346.9 0.00 0.2855586 75.5 65.3
2021-04-18 14:10:00 58.0 20.9 18.1 58.0 58.0 3.5 7.2 4.4 151.4 71.7 0.00 0.2848417 75.8 65.6
2021-04-18 14:15:00 58.2 21.2 18.6 58.2 58.2 1.5 4.9 2.8 336.1 177.6 0.00 0.2808270 76.1 65.8
2021-04-18 14:20:00 58.4 21.3 18.9 58.4 58.4 7.6 10.6 6.3 222.9 249.0 0.00 0.2844979 76.5 66.1
2021-04-18 14:25:00 58.5 20.9 18.5 58.5 58.5 10.8 11.0 4.8 337.2 305.7 0.00 0.2647703 76.9 66.3
2021-04-18 14:30:00 59.1 19.4 17.3 59.1 59.1 12.6 12.8 9.3 291.8 317.0 0.00 0.2758315 77.2 66.5
2021-04-18 14:35:00 57.5 20.8 17.6 57.5 57.5 9.7 14.6 10.0 318.9 300.2 0.00 0.2719405 77.6 66.8
2021-04-18 14:40:00 57.7 20.1 17.0 57.7 57.7 10.1 11.5 9.0 325.5 303.6 0.00 0.2689790 77.8 67.0
2021-04-18 14:45:00 57.5 20.5 17.3 57.5 57.5 3.5 10.1 5.2 131.2 357.4 0.00 0.2666467 78.0 67.3
2021-04-18 14:50:00 58.6 20.2 17.8 58.6 58.6 5.3 6.3 4.6 291.0 172.9 0.00 0.2660940 78.2 67.5
2021-04-18 14:55:00 58.0 20.4 17.6 58.0 58.0 5.5 9.7 6.1 222.9 248.4 0.00 0.2607714 78.4 67.7
2021-04-18 15:00:00 58.4 19.8 17.2 58.4 58.4 3.7 6.9 4.3 281.0 218.3 0.00 0.1563296 78.6 67.9
2021-04-18 15:05:00 58.2 20.8 18.2 58.2 58.2 2.6 11.9 5.2 217.3 290.0 0.00 0.2562729 78.8 68.2
2021-04-18 15:10:00 59.5 20.0 18.4 59.5 59.5 8.1 9.9 6.6 246.0 154.7 0.00 0.2520291 78.9 68.4
2021-04-18 15:15:00 59.1 20.6 18.7 59.1 59.1 6.0 13.0 8.8 190.6 244.3 0.00 0.2490740 79.0 68.5
2021-04-18 15:20:00 58.7 21.2 19.0 58.7 58.7 8.3 9.6 5.9 296.5 260.6 0.00 0.2461956 79.1 68.7
2021-04-18 15:25:00 58.6 21.1 18.8 58.6 58.6 11.7 14.9 10.1 316.3 303.3 0.00 0.2445501 79.2 68.9
2021-04-18 15:30:00 58.7 21.0 18.8 58.7 58.7 2.8 12.4 6.9 349.4 297.4 0.00 0.2434520 79.3 69.0
2021-04-18 15:35:00 59.7 20.3 18.9 59.7 59.7 2.6 6.3 3.3 137.7 210.7 0.00 0.2439211 79.3 69.2
2021-04-18 15:40:00 59.8 19.9 18.5 59.8 59.8 3.0 6.0 3.3 326.0 186.5 0.00 0.2369597 79.4 69.4
2021-04-18 15:45:00 60.2 20.4 19.3 60.2 60.2 6.2 10.3 4.7 316.5 351.9 0.00 0.2268626 79.5 69.5
2021-04-18 15:50:00 59.4 20.1 18.4 59.4 59.4 8.0 12.6 8.8 1.2 341.5 0.00 0.2080080 79.7 69.6
2021-04-18 15:55:00 58.8 21.0 18.9 58.8 58.8 9.6 11.3 5.8 341.8 332.3 0.00 0.1757850 79.8 69.7
2021-04-18 16:00:00 58.9 20.4 18.4 58.9 58.9 4.0 11.9 5.0 41.4 3.3 0.00 0.2255459 79.9 69.9
2021-04-18 16:05:00 59.3 19.8 18.0 59.3 59.3 8.5 14.0 7.5 0.5 355.0 0.00 0.2162646 79.9 70.0
2021-04-18 16:10:00 59.0 19.9 17.8 59.0 59.0 7.1 9.0 7.0 43.8 23.9 0.00 0.2101427 79.9 70.1
2021-04-18 16:15:00 59.8 19.6 18.2 59.8 59.8 4.4 8.5 5.5 335.4 19.1 0.00 0.2067338 79.9 70.2
2021-04-18 16:20:00 59.9 20.2 18.9 59.9 59.9 9.0 9.7 6.4 323.6 349.4 0.00 0.1659033 79.9 70.3
2021-04-18 16:25:00 59.9 20.2 18.9 59.9 59.9 9.7 11.9 8.2 297.1 322.4 0.00 0.1729980 79.9 70.4
2021-04-18 16:30:00 58.7 20.6 18.4 58.7 58.7 8.1 11.5 7.6 299.0 297.6 0.00 0.1358836 79.8 70.5
2021-04-18 16:35:00 59.1 19.8 17.8 59.1 59.1 5.5 11.5 5.2 275.3 301.4 0.00 0.1472682 79.7 70.6
2021-04-18 16:40:00 57.8 20.7 17.8 57.8 57.8 5.1 7.2 5.4 303.5 296.9 0.00 0.0363409 79.5 70.7
2021-04-18 16:45:00 57.8 20.9 17.9 57.8 57.8 3.5 4.6 2.9 228.0 282.0 0.00 0.0418365 79.3 70.7
2021-04-18 16:50:00 58.6 19.9 17.5 58.6 58.6 1.9 4.7 2.7 322.3 283.0 0.00 0.1336792 78.9 70.8
2021-04-18 16:55:00 60.2 19.0 17.7 60.2 60.2 3.1 4.7 2.5 10.7 341.3 0.00 0.1495865 78.5 70.8
2021-04-18 17:00:00 60.8 19.0 18.2 60.8 60.8 7.1 7.1 3.6 166.6 324.5 0.00 0.1681100 78.1 70.8
2021-04-18 17:05:00 59.5 19.7 18.0 59.5 59.5 3.7 8.7 5.8 155.7 179.1 0.00 0.1702618 77.8 70.8
2021-04-18 17:10:00 59.5 19.9 18.2 59.5 59.5 3.1 4.9 3.6 201.2 138.4 0.00 0.1671552 77.7 70.8
2021-04-18 17:15:00 60.0 20.0 18.7 60.0 60.0 5.5 9.9 5.1 255.9 248.4 0.00 0.1627778 77.6 70.8
2021-04-18 17:20:00 60.5 19.7 18.8 60.5 60.5 7.6 12.1 8.5 237.9 281.9 0.00 0.1462543 77.5 70.7
2021-04-18 17:25:00 59.4 20.0 18.3 59.4 59.4 6.5 12.6 8.7 280.1 275.0 0.00 0.1399546 77.5 70.7
2021-04-18 17:30:00 59.6 20.3 18.8 59.6 59.6 6.2 12.8 8.9 258.9 273.7 0.00 0.1326898 77.5 70.7
2021-04-18 17:35:00 58.9 21.8 19.9 58.9 58.9 7.8 10.6 6.9 254.7 291.3 0.00 0.0858086 77.3 70.7
2021-04-18 17:40:00 59.5 20.7 19.2 59.5 59.5 11.0 12.2 9.4 285.7 276.4 0.00 0.1174693 77.2 70.7
2021-04-18 17:45:00 57.8 21.7 18.8 57.8 57.8 5.3 10.1 7.7 296.8 291.9 0.00 0.0422656 76.9 70.7
2021-04-18 17:50:00 57.3 21.9 18.7 57.3 57.3 3.8 6.9 4.8 308.6 306.7 0.00 0.0228594 76.7 70.7
2021-04-18 17:55:00 57.0 22.5 19.0 57.0 57.0 3.7 5.6 4.3 251.7 281.0 0.00 0.0206064 76.3 70.6
2021-04-18 18:00:00 57.0 22.5 19.1 57.0 57.0 7.1 7.6 4.7 284.7 264.8 0.00 0.0180188 75.9 70.6
2021-04-18 18:05:00 56.7 22.9 19.1 56.7 56.7 3.1 7.6 5.2 247.8 252.0 0.00 0.0223424 75.3 70.5
2021-04-18 18:10:00 56.9 23.0 19.4 56.9 56.9 4.9 4.9 2.9 277.6 255.5 0.00 0.0237637 74.8 70.4
2021-04-18 18:15:00 57.5 22.0 19.0 57.5 57.5 3.1 4.7 3.8 270.1 269.3 0.00 0.0481164 74.2 70.3
2021-04-18 18:20:00 57.7 21.9 19.0 57.7 57.7 2.4 4.0 2.9 288.0 271.2 0.00 0.0301413 73.7 70.2
2021-04-18 18:25:00 57.6 22.5 19.5 57.6 57.6 3.3 4.2 2.9 329.4 304.6 0.00 0.0314789 73.2 70.1
2021-04-18 18:30:00 57.2 23.4 20.2 57.2 57.2 2.1 3.5 2.8 328.8 321.7 0.00 0.0180439 72.6 69.9
2021-04-18 18:35:00 56.6 24.6 20.8 56.6 56.6 3.8 4.0 3.2 309.8 320.6 0.00 0.0145406 72.2 69.8
2021-04-18 18:40:00 56.3 23.6 19.6 56.3 56.3 3.1 4.7 3.7 277.0 298.9 0.00 0.0127950 71.7 69.6
2021-04-18 18:45:00 55.9 25.2 20.8 55.9 55.9 4.6 5.8 4.3 250.0 254.4 0.00 0.0153321 71.3 69.4
2021-04-18 18:50:00 54.4 31.1 24.4 54.4 54.4 4.7 7.4 5.5 242.1 237.3 0.00 0.0080921 70.8 69.3
2021-04-18 18:55:00 54.6 25.9 20.3 54.6 54.6 4.7 5.8 5.2 249.5 246.4 0.00 0.0072178 70.3 69.1
2021-04-18 19:00:00 54.1 26.4 20.3 54.1 54.1 4.4 5.8 4.6 249.2 246.8 0.00 0.0071623 69.9 68.9
2021-04-18 19:05:00 54.1 26.6 20.4 54.1 54.1 4.7 5.3 4.7 253.8 248.9 0.00 0.0143799 69.4 68.7
2021-04-18 19:10:00 54.4 25.7 19.9 54.4 54.4 3.8 5.1 3.9 259.0 260.3 0.00 0.0124279 69.0 68.5
2021-04-18 19:15:00 53.8 28.8 22.1 53.8 53.8 4.6 5.8 4.1 246.2 241.3 0.00 0.0070543 68.5 68.3
2021-04-18 19:20:00 53.3 26.9 20.0 53.3 53.3 4.6 5.3 4.3 249.9 248.5 0.00 0.0020324 68.1 68.1
2021-04-18 19:25:00 53.0 27.0 19.9 53.0 53.0 3.5 4.7 4.0 249.0 244.4 0.00 0.0010889 67.7 68.0
2021-04-18 19:30:00 52.3 27.8 20.0 52.3 52.3 4.7 4.7 3.9 240.2 247.7 0.00 0.0000421 67.3 67.7
2021-04-18 19:35:00 51.4 28.5 19.8 51.4 51.4 3.7 4.7 4.2 244.3 243.3 0.00 0.0000000 66.8 67.6
2021-04-18 19:40:00 50.9 28.9 19.7 50.9 50.9 4.7 4.7 4.2 243.6 246.6 0.00 0.0000000 66.4 67.3
2021-04-18 19:45:00 50.1 28.8 18.9 50.1 50.1 4.4 4.6 3.8 287.7 264.5 0.00 0.0000000 66.0 67.2
2021-04-18 19:50:00 50.7 28.0 18.7 50.7 50.7 4.4 4.4 4.1 270.6 276.8 0.00 0.0000000 65.6 67.0
2021-04-18 19:55:00 50.1 29.3 19.3 50.1 50.1 4.0 4.7 4.3 274.0 272.2 0.00 0.0000000 65.2 66.7
2021-04-18 20:00:00 49.8 29.7 19.4 48.7 49.8 4.0 4.2 4.0 275.3 273.8 0.00 0.0000000 64.8 66.5
2021-04-18 20:05:00 48.8 29.8 18.6 47.4 48.8 4.2 4.4 4.1 282.2 278.2 0.00 0.0000000 64.4 66.3
2021-04-18 20:10:00 47.8 31.2 18.7 45.4 47.8 5.3 5.3 4.7 272.6 278.5 0.00 0.0000000 64.0 66.1
2021-04-18 20:15:00 47.0 32.4 18.9 44.8 47.0 4.7 5.6 5.2 280.0 277.1 0.00 0.0000000 63.7 65.9
2021-04-18 20:20:00 46.7 32.6 18.8 44.3 46.7 4.9 5.3 4.9 281.4 280.7 0.00 0.0000000 63.3 65.7
2021-04-18 20:25:00 46.7 32.6 18.8 44.2 46.7 5.1 5.3 5.0 279.8 280.1 0.00 0.0000000 62.9 65.5
2021-04-18 20:30:00 46.6 32.7 18.8 44.0 46.6 5.3 5.3 5.2 285.0 279.8 0.00 0.0000000 62.6 65.3
2021-04-18 20:35:00 46.2 31.3 17.5 43.6 46.2 5.3 5.6 5.3 297.0 291.1 0.00 0.0000000 62.2 65.1
2021-04-18 20:40:00 45.1 33.7 18.2 42.3 45.1 5.3 5.8 5.5 286.3 290.6 0.00 0.0000000 61.8 64.9
2021-04-18 20:45:00 44.4 33.8 17.6 41.7 44.4 4.9 5.5 5.0 284.4 285.7 0.00 0.0000000 61.5 64.7
2021-04-18 20:50:00 44.4 35.8 19.0 41.2 44.4 5.6 5.6 5.2 283.7 283.7 0.00 0.0000000 61.2 64.5
2021-04-18 20:55:00 44.1 36.8 19.3 41.0 44.1 5.5 5.5 5.3 287.5 286.6 0.00 0.0000000 60.9 64.2
2021-04-18 21:00:00 44.5 35.9 19.1 41.5 44.5 5.3 5.6 5.4 287.3 285.3 0.00 0.0000000 60.5 64.0
2021-04-18 21:05:00 43.8 37.6 19.6 41.2 43.8 4.6 5.5 5.1 285.4 285.9 0.00 0.0000000 60.2 63.9
2021-04-18 21:10:00 43.1 37.5 18.9 40.4 43.1 4.6 5.1 4.8 296.6 292.1 0.00 0.0000000 59.9 63.6
2021-04-18 21:15:00 43.1 37.4 18.8 40.6 43.1 4.4 4.6 4.3 299.8 295.7 0.00 0.0000000 59.6 63.5
2021-04-18 21:20:00 43.2 42.6 22.0 38.6 43.2 7.8 8.0 5.5 0.7 313.0 0.00 0.0000000 59.4 63.3
2021-04-18 21:25:00 44.5 39.6 21.4 41.1 44.5 6.0 8.8 6.6 321.4 334.1 0.00 0.0000000 59.1 63.1
2021-04-18 21:30:00 44.0 42.0 22.4 41.4 44.0 4.7 6.0 4.8 330.2 325.7 0.00 0.0000000 58.8 62.9
2021-04-18 21:35:00 45.2 39.4 21.9 43.4 45.2 3.8 7.2 5.6 292.0 323.2 0.00 0.0000000 58.6 62.7
2021-04-18 21:40:00 45.3 38.0 21.2 42.4 45.3 5.5 5.6 5.0 309.2 305.6 0.00 0.0000000 58.3 62.5
2021-04-18 21:45:00 44.8 41.0 22.5 43.3 44.8 3.5 5.6 4.7 321.7 317.2 0.00 0.0000000 58.1 62.3
2021-04-18 21:50:00 44.1 38.2 20.2 41.7 44.1 4.4 6.0 3.6 278.2 269.0 0.00 0.0000000 57.8 62.2
2021-04-18 21:55:00 44.7 41.4 22.7 41.3 44.7 6.2 6.2 3.5 286.8 292.9 0.00 0.0000000 57.6 62.0
2021-04-18 22:00:00 45.9 41.0 23.5 43.9 45.9 4.2 6.0 4.5 280.3 308.6 0.00 0.0000000 57.4 61.8
2021-04-18 22:05:00 46.3 41.5 24.2 43.5 46.3 5.6 5.6 4.2 283.1 312.8 0.00 0.0000000 57.2 61.6

Data is courtesy of the NM Climate Center. DO NOT USE IN LEGAL PROCEEDINGS.